Time;durP1;ratioP1;P1;durP2;ratioP2;P2;SDS_P1;SDS_P2;PMS_P1;PMS_P2;Temp;Humidity;BMP_temperature;BMP_pressure;BME280_temperature;BME280_humidity;BME280_pressure;Samples;Min_cycle;Max_cycle;Signal;HPM_P1;HPM_P2
2021/11/04 00:01:08;;;;;;;2.50;1.88;;;;;;;12.02;100.00;98014.75;5034222;28;20111;-83
2021/11/04 00:03:37;;;;;;;1.92;1.50;;;;;;;12.09;100.00;98021.06;5033997;28;20034;-83
2021/11/04 00:06:04;;;;;;;2.55;1.40;;;;;;;12.12;100.00;98027.78;5032740;28;20069;-83
2021/11/04 00:08:31;;;;;;;1.92;1.60;;;;;;;12.02;100.00;98007.72;5033895;28;20069;-83
2021/11/04 00:10:59;;;;;;;2.65;1.35;;;;;;;12.19;100.00;97989.69;5034105;28;20045;-83
2021/11/04 00:13:25;;;;;;;2.13;1.20;;;;;;;12.14;100.00;97982.28;5033728;28;20112;-83
2021/11/04 00:15:53;;;;;;;3.22;1.92;;;;;;;12.02;100.00;97991.25;5034155;28;20112;-84
2021/11/04 00:18:20;;;;;;;1.70;1.50;;;;;;;12.02;100.00;98002.50;5034134;28;20041;-86
2021/11/04 00:20:47;;;;;;;1.90;1.73;;;;;;;11.90;100.00;98016.69;5032892;28;20092;-85
2021/11/04 00:23:14;;;;;;;1.60;1.50;;;;;;;12.06;100.00;98021.34;5042028;28;20143;-85
2021/11/04 00:25:41;;;;;;;1.35;1.25;;;;;;;12.09;100.00;98008.00;5031775;28;20045;-85
2021/11/04 00:28:07;;;;;;;1.20;1.10;;;;;;;12.04;100.00;98011.03;5043643;28;20048;-86
2021/11/04 00:30:34;;;;;;;1.40;1.30;;;;;;;12.03;100.00;98004.16;5036842;28;20050;-86
2021/11/04 00:33:01;;;;;;;1.13;1.13;;;;;;;11.94;100.00;98023.28;5045586;28;20422;-85
2021/11/04 00:35:28;;;;;;;1.00;1.00;;;;;;;11.95;100.00;98006.66;5038637;28;20050;-86
2021/11/04 00:37:59;;;;;;;1.10;1.10;;;;;;;12.07;100.00;98004.69;5041085;28;20143;-85
2021/11/04 00:40:26;;;;;;;1.45;1.35;;;;;;;12.19;100.00;98007.97;5040099;28;20068;-85
2021/11/04 00:42:53;;;;;;;5.63;1.40;;;;;;;12.11;100.00;98015.69;5034538;28;20049;-85
2021/11/04 00:45:21;;;;;;;1.15;1.08;;;;;;;12.03;100.00;98004.16;5033834;28;20553;-86
2021/11/04 00:47:49;;;;;;;1.20;1.10;;;;;;;12.01;100.00;98010.50;5032926;28;20444;-85
2021/11/04 00:50:16;;;;;;;3.38;1.50;;;;;;;12.10;100.00;98007.03;5032807;28;20077;-86
2021/11/04 00:52:43;;;;;;;1.30;1.15;;;;;;;12.30;100.00;98008.66;5033275;28;20053;-85
2021/11/04 00:55:11;;;;;;;2.25;1.20;;;;;;;12.18;100.00;98014.97;5053528;28;20103;-84
2021/11/04 00:57:38;;;;;;;2.20;1.90;;;;;;;11.81;100.00;98038.38;5038923;28;20041;-84
2021/11/04 01:00:09;;;;;;;1.45;0.77;;;;;;;11.77;100.00;98044.81;5053240;28;20095;-84
2021/11/04 01:02:35;;;;;;;0.90;0.90;;;;;;;11.79;100.00;98043.72;5052826;28;20040;-83
2021/11/04 01:05:03;;;;;;;1.13;0.88;;;;;;;12.07;100.00;98056.94;5049930;28;20049;-84
2021/11/04 01:07:29;;;;;;;0.73;0.73;;;;;;;11.86;100.00;98064.91;5031830;28;20049;-83
2021/11/04 01:09:56;;;;;;;0.90;0.90;;;;;;;11.94;100.00;98062.44;5032293;28;20384;-83
2021/11/04 01:12:23;;;;;;;3.92;1.50;;;;;;;11.77;100.00;98060.47;5034451;28;20042;-83
2021/11/04 01:14:50;;;;;;;3.25;0.80;;;;;;;11.98;100.00;98061.19;5040261;28;20095;-83
2021/11/04 01:17:17;;;;;;;1.00;0.90;;;;;;;11.87;100.00;98053.50;5032921;28;20459;-84
2021/11/04 01:19:44;;;;;;;1.10;1.00;;;;;;;11.68;100.00;98058.72;5049342;28;20430;-84
2021/11/04 01:22:11;;;;;;;3.13;0.85;;;;;;;11.65;100.00;98058.97;5052585;28;20119;-85
2021/11/04 01:24:40;;;;;;;1.58;0.90;;;;;;;11.81;100.00;98054.03;5041648;28;20049;-85
2021/11/04 01:27:07;;;;;;;1.45;1.02;;;;;;;11.57;100.00;98059.66;5032652;28;20080;-84
2021/11/04 01:29:34;;;;;;;4.53;1.30;;;;;;;11.43;100.00;98063.47;5032515;28;20088;-84
2021/11/04 01:32:01;;;;;;;5.65;1.17;;;;;;;11.53;100.00;98053.88;5032819;28;20049;-83
2021/11/04 01:34:28;;;;;;;4.65;1.10;;;;;;;11.68;100.00;98056.91;5032382;28;20038;-84
2021/11/04 01:36:55;;;;;;;1.85;0.80;;;;;;;11.51;100.00;98055.81;5032528;28;20086;-84
2021/11/04 01:39:22;;;;;;;4.55;1.48;;;;;;;11.54;100.00;98063.34;5032573;28;20044;-83
2021/11/04 01:41:48;;;;;;;4.05;1.80;;;;;;;11.52;100.00;98067.06;5032911;28;20072;-84
2021/11/04 01:44:15;;;;;;;1.60;1.50;;;;;;;11.38;100.00;98076.09;5043576;28;20565;-84
2021/11/04 01:46:43;;;;;;;5.35;2.30;;;;;;;11.40;100.00;98089.84;5030513;28;20045;-84
2021/11/04 01:49:10;;;;;;;2.33;2.10;;;;;;;11.28;100.00;98090.91;5031952;28;20045;-83
2021/11/04 01:51:37;;;;;;;3.15;2.42;;;;;;;11.19;100.00;98092.53;5052014;28;20581;-84
2021/11/04 01:54:06;;;;;;;3.60;3.20;;;;;;;11.34;100.00;98076.50;5050630;28;20128;-84
2021/11/04 01:56:40;;;;;;;4.88;3.58;;;;;;;11.02;100.00;98095.75;5050332;28;20053;-83
2021/11/04 01:59:07;;;;;;;5.60;2.47;;;;;;;10.99;100.00;98104.69;5032754;28;20041;-83
2021/11/04 02:01:35;;;;;;;3.70;2.50;;;;;;;11.16;100.00;98103.22;5031945;28;20080;-83
2021/11/04 02:04:24;;;;;;;2.15;1.98;;;;;;;11.08;100.00;98113.50;5051378;28;20534;-82
2021/11/04 02:07:16;;;;;;;2.70;2.50;;;;;;;10.85;100.00;98141.50;5051910;28;20119;-83
2021/11/04 02:09:57;;;;;;;3.97;1.85;;;;;;;11.07;100.00;98150.13;5051911;28;20041;-84
2021/11/04 02:12:34;;;;;;;3.70;1.88;;;;;;;11.04;100.00;98160.81;5040102;28;20087;-84
2021/11/04 02:15:05;;;;;;;1.48;1.38;;;;;;;10.87;100.00;98155.25;5032393;28;20049;-84
2021/11/04 02:17:34;;;;;;;2.00;1.80;;;;;;;11.01;100.00;98149.69;5031688;28;20053;-84
2021/11/04 02:20:01;;;;;;;2.63;1.45;;;;;;;10.94;100.00;98145.97;5032332;28;20041;-84
2021/11/04 02:22:42;;;;;;;1.17;1.17;;;;;;;10.63;100.00;98155.53;5030005;28;20041;-84
2021/11/04 02:25:15;;;;;;;3.53;2.38;;;;;;;10.75;100.00;98171.91;5032115;28;20041;-84
2021/11/04 02:27:52;;;;;;;3.53;3.22;;;;;;;10.71;100.00;98180.97;5031924;28;20041;-84
2021/11/04 02:30:20;;;;;;;5.90;3.70;;;;;;;10.80;100.00;98181.94;5031650;28;20480;-84
2021/11/04 02:32:49;;;;;;;5.65;4.95;;;;;;;10.82;100.00;98186.09;5032229;28;20037;-83
2021/11/04 02:35:16;;;;;;;5.50;5.00;;;;;;;10.77;100.00;98190.88;5031670;28;20057;-84
2021/11/04 02:37:46;;;;;;;11.52;5.72;;;;;;;10.55;100.00;98196.22;5032298;28;20553;-86
2021/11/04 02:40:15;;;;;;;9.07;7.00;;;;;;;10.47;100.00;98202.84;5031878;28;20520;-85
2021/11/04 02:42:42;;;;;;;8.73;7.40;;;;;;;10.62;100.00;98192.13;5031656;28;20064;-86
2021/11/04 02:45:13;;;;;;;10.07;7.60;;;;;;;10.86;100.00;98190.06;5030389;28;20108;-86
2021/11/04 02:47:40;;;;;;;9.68;7.63;;;;;;;10.73;100.00;98182.47;5036087;28;20104;-86
2021/11/04 02:50:09;;;;;;;10.77;7.95;;;;;;;10.77;100.00;98183.03;5032086;28;20046;-86
2021/11/04 02:52:37;;;;;;;6.85;4.25;;;;;;;10.94;100.00;98179.03;5034661;28;20064;-86
2021/11/04 02:55:05;;;;;;;3.20;2.90;;;;;;;10.63;100.00;98181.56;5032341;28;20056;-87
2021/11/04 02:57:41;;;;;;;2.47;2.20;;;;;;;10.65;100.00;98181.44;5032089;28;20053;-87
2021/11/04 03:00:08;;;;;;;3.08;2.78;;;;;;;10.84;100.00;98186.78;5057833;28;20045;-87
2021/11/04 03:02:34;;;;;;;6.07;5.00;;;;;;;10.96;100.00;98182.31;5053891;28;20086;-86
2021/11/04 03:05:01;;;;;;;7.10;4.43;;;;;;;10.96;100.00;98188.34;5053183;28;20437;-87
2021/11/04 03:07:28;;;;;;;4.80;4.32;;;;;;;10.97;100.00;98190.03;5048972;28;20038;-87
2021/11/04 03:09:55;;;;;;;8.98;5.28;;;;;;;10.90;100.00;98194.09;5035394;28;20542;-87
2021/11/04 03:12:22;;;;;;;7.30;5.35;;;;;;;10.89;100.00;98189.00;5035322;28;20044;-84
2021/11/04 03:14:49;;;;;;;9.68;5.82;;;;;;;10.74;100.00;98188.50;5046626;28;20052;-83
2021/11/04 03:17:17;;;;;;;7.32;6.20;;;;;;;10.51;100.00;98192.19;5034805;28;20099;-83
2021/11/04 03:19:45;;;;;;;7.90;6.90;;;;;;;10.49;100.00;98195.75;5035148;28;20088;-83
2021/11/04 03:22:12;;;;;;;20.02;9.77;;;;;;;10.08;100.00;98204.28;5035054;28;20037;-84
2021/11/04 03:24:38;;;;;;;39.88;11.80;;;;;;;9.92;100.00;98204.69;5034569;28;20045;-83
2021/11/04 03:27:07;;;;;;;16.80;12.27;;;;;;;9.93;100.00;98197.69;5035114;28;20190;-85
2021/11/04 03:29:39;;;;;;;14.95;11.73;;;;;;;10.11;100.00;98211.00;5034760;28;20085;-85
2021/11/04 03:32:12;;;;;;;13.52;10.73;;;;;;;10.10;100.00;98217.16;5034989;28;20053;-85
2021/11/04 03:34:40;;;;;;;15.20;12.02;;;;;;;10.16;100.00;98219.28;5033613;28;20057;-85
2021/11/04 03:37:06;;;;;;;16.10;11.88;;;;;;;10.10;100.00;98218.00;5015446;28;20069;-85
2021/11/04 03:39:36;;;;;;;12.45;11.07;;;;;;;10.33;100.00;98203.16;5027954;28;20095;-83
2021/11/04 03:42:04;;;;;;;12.82;10.90;;;;;;;10.29;100.00;98212.19;5038769;28;20052;-83
2021/11/04 03:44:32;;;;;;;9.23;7.90;;;;;;;10.08;100.00;98219.09;5034735;28;20049;-84
2021/11/04 03:47:00;;;;;;;10.13;8.40;;;;;;;9.92;100.00;98216.88;5034651;28;20046;-86
2021/11/04 03:49:29;;;;;;;13.20;10.27;;;;;;;9.76;100.00;98214.66;5034636;28;20443;-85
2021/11/04 03:51:56;;;;;;;15.18;11.52;;;;;;;9.96;100.00;98210.50;5034662;28;20072;-85
2021/11/04 03:54:24;;;;;;;13.20;11.68;;;;;;;9.83;100.00;98226.22;5034643;28;20499;-85
2021/11/04 03:56:53;;;;;;;13.27;11.02;;;;;;;9.85;100.00;98221.72;5035051;28;20400;-85
2021/11/04 03:59:20;;;;;;;15.35;10.70;;;;;;;9.88;100.00;98221.50;5034733;28;20423;-85
2021/11/04 04:01:48;;;;;;;15.48;11.63;;;;;;;9.96;100.00;98221.72;5033974;28;20041;-84
2021/11/04 04:04:15;;;;;;;16.83;12.40;;;;;;;9.66;100.00;98231.94;5034571;28;20033;-84
2021/11/04 04:06:42;;;;;;;10.82;8.43;;;;;;;9.84;100.00;98235.69;5034288;28;20053;-84
2021/11/04 04:09:11;;;;;;;11.00;7.38;;;;;;;9.72;100.00;98236.66;5034862;28;20064;-84
2021/11/04 04:11:37;;;;;;;10.15;6.32;;;;;;;9.76;100.00;98240.69;5043449;28;20103;-84
2021/11/04 04:14:04;;;;;;;8.00;6.07;;;;;;;9.66;100.00;98255.34;5033527;28;20038;-84
2021/11/04 04:16:31;;;;;;;7.93;5.40;;;;;;;9.51;100.00;98264.34;5033726;28;20076;-84
2021/11/04 04:18:58;;;;;;;8.65;6.50;;;;;;;9.91;100.00;98270.72;5033958;28;20052;-84
2021/11/04 04:21:24;;;;;;;11.23;9.48;;;;;;;9.49;100.00;98274.03;5045142;28;20041;-83
2021/11/04 04:23:51;;;;;;;14.82;10.77;;;;;;;9.83;100.00;98295.66;5034331;28;20107;-83
2021/11/04 04:26:18;;;;;;;11.60;10.07;;;;;;;9.52;100.00;98292.00;5034271;28;20391;-84
2021/11/04 04:28:47;;;;;;;12.65;10.32;;;;;;;9.51;100.00;98291.16;5033850;28;20064;-84
2021/11/04 04:31:14;;;;;;;12.63;10.88;;;;;;;9.27;100.00;98296.47;5033634;28;20420;-84
2021/11/04 04:33:41;;;;;;;10.95;8.68;;;;;;;9.01;100.00;98285.44;5033698;28;20096;-84
2021/11/04 04:36:08;;;;;;;12.85;10.50;;;;;;;9.00;100.00;98299.38;5033980;28;20048;-84
2021/11/04 04:38:35;;;;;;;11.20;8.63;;;;;;;8.88;100.00;98319.28;5033435;28;20049;-84
2021/11/04 04:41:02;;;;;;;9.27;7.75;;;;;;;8.94;100.00;98312.81;5033630;28;20133;-85
2021/11/04 04:43:29;;;;;;;11.30;9.23;;;;;;;9.36;100.00;98311.38;5033668;28;20048;-84
2021/11/04 04:45:56;;;;;;;12.55;10.20;;;;;;;9.22;100.00;98314.19;5033118;28;20115;-84
2021/11/04 04:48:23;;;;;;;10.80;5.20;;;;;;;9.22;100.00;98313.38;5033426;28;20053;-83
2021/11/04 04:50:49;;;;;;;5.32;4.43;;;;;;;9.06;100.00;98317.13;5033121;28;20072;-84
2021/11/04 04:53:16;;;;;;;12.57;8.40;;;;;;;8.86;100.00;98328.97;5033654;28;20060;-84
2021/11/04 04:55:43;;;;;;;15.25;11.32;;;;;;;9.19;100.00;98324.81;5039434;28;20045;-83
2021/11/04 04:58:10;;;;;;;21.85;16.35;;;;;;;9.30;100.00;98353.44;5056613;28;20064;-84
2021/11/04 05:00:36;;;;;;;18.15;14.18;;;;;;;9.09;100.00;98363.66;5047379;28;20129;-83
2021/11/04 05:03:05;;;;;;;12.07;9.18;;;;;;;9.21;100.00;98366.28;5035699;28;20539;-83
2021/11/04 05:05:32;;;;;;;11.77;9.60;;;;;;;9.07;100.00;98362.94;5033568;28;20045;-82
2021/11/04 05:07:59;;;;;;;15.63;14.02;;;;;;;8.91;100.00;98368.44;5033313;28;20190;-83
2021/11/04 05:10:26;;;;;;;29.73;18.20;;;;;;;8.93;100.00;98374.34;5033167;28;20042;-83
2021/11/04 05:12:52;;;;;;;24.65;20.58;;;;;;;9.10;100.00;98367.91;5032524;28;20432;-83
2021/11/04 05:15:19;;;;;;;28.60;21.88;;;;;;;9.09;100.00;98375.81;5033189;28;20045;-83
2021/11/04 05:17:46;;;;;;;18.67;15.20;;;;;;;8.90;100.00;98376.34;5032444;28;20092;-84
2021/11/04 05:20:12;;;;;;;14.80;8.52;;;;;;;8.48;100.00;98396.66;5037737;28;20048;-83
2021/11/04 05:22:39;;;;;;;13.82;12.18;;;;;;;8.71;100.00;98405.41;5052438;28;20106;-83
2021/11/04 05:25:06;;;;;;;21.90;17.08;;;;;;;8.95;100.00;98417.56;5037557;28;20068;-83
2021/11/04 05:27:34;;;;;;;22.88;18.00;;;;;;;8.85;100.00;98431.25;5032277;28;20096;-83
2021/11/04 05:30:02;;;;;;;29.77;23.40;;;;;;;9.21;100.00;98432.09;5030896;28;20080;-82
2021/11/04 05:32:29;;;;;;;24.13;19.02;;;;;;;9.16;100.00;98434.22;5032377;28;20050;-82
2021/11/04 05:34:56;;;;;;;19.45;13.95;;;;;;;8.76;100.00;98442.28;5032286;28;20518;-85
2021/11/04 05:37:22;;;;;;;15.15;12.35;;;;;;;8.70;100.00;98460.09;5032393;28;20099;-84
2021/11/04 05:39:49;;;;;;;26.95;13.95;;;;;;;8.78;100.00;98456.00;5032260;28;20542;-85
2021/11/04 05:42:17;;;;;;;20.58;14.25;;;;;;;8.78;100.00;98456.00;5032603;28;20085;-85
2021/11/04 05:44:44;;;;;;;23.95;15.13;;;;;;;8.85;100.00;98465.03;5045216;28;20095;-84
2021/11/04 05:47:11;;;;;;;18.42;13.68;;;;;;;8.88;100.00;98462.19;5049683;28;20045;-84
2021/11/04 05:49:38;;;;;;;24.58;15.55;;;;;;;8.63;100.00;98452.72;5034700;28;20045;-86
2021/11/04 05:52:05;;;;;;;21.42;15.75;;;;;;;8.58;100.00;98479.97;5032267;28;20053;-85
2021/11/04 05:54:32;;;;;;;21.95;16.00;;;;;;;8.60;100.00;98485.88;5032207;28;20551;-85
2021/11/04 05:57:00;;;;;;;21.05;15.40;;;;;;;8.83;100.00;98466.88;5032117;28;20053;-85
2021/11/04 05:59:27;;;;;;;30.73;18.83;;;;;;;8.79;100.00;98478.47;5032357;28;20446;-88
2021/11/04 06:01:54;;;;;;;26.63;17.65;;;;;;;8.68;100.00;98477.53;5031810;28;20088;-82
2021/11/04 06:04:22;;;;;;;32.38;19.98;;;;;;;8.78;100.00;98476.78;5032225;28;20072;-83
2021/11/04 06:06:50;;;;;;;27.58;16.80;;;;;;;8.79;100.00;98477.59;5031908;28;20045;-80
2021/11/04 06:09:16;;;;;;;18.70;13.95;;;;;;;8.60;100.00;98484.09;5031921;28;20045;-80
2021/11/04 06:11:43;;;;;;;19.08;11.93;;;;;;;8.61;100.00;98500.50;5031791;28;20400;-80
2021/11/04 06:14:10;;;;;;;12.07;9.93;;;;;;;8.52;100.00;98519.31;5031751;28;20124;-79
2021/11/04 06:16:37;;;;;;;14.10;9.43;;;;;;;8.61;100.00;98516.09;5035807;28;20361;-86
2021/11/04 06:19:04;;;;;;;10.75;8.38;;;;;;;8.71;100.00;98524.09;5022725;28;20041;-83
2021/11/04 06:21:30;;;;;;;11.35;7.45;;;;;;;8.84;100.00;98535.25;5029860;28;20034;-85
2021/11/04 06:23:57;;;;;;;9.32;8.10;;;;;;;8.86;100.00;98542.03;5026988;28;20049;-86
2021/11/04 06:26:24;;;;;;;8.73;7.55;;;;;;;8.98;100.00;98535.13;5029565;28;20096;-86
2021/11/04 06:28:51;;;;;;;13.43;8.13;;;;;;;9.02;100.00;98556.56;5029023;28;20041;-83
2021/11/04 06:31:18;;;;;;;6.55;5.93;;;;;;;8.93;100.00;98564.03;5028012;28;20488;-81
2021/11/04 06:33:44;;;;;;;8.10;5.60;;;;;;;8.95;100.00;98568.28;5026746;28;20451;-81
2021/11/04 06:36:11;;;;;;;8.57;3.63;;;;;;;8.99;100.00;98565.38;5025825;28;20045;-81
2021/11/04 06:38:38;;;;;;;5.47;3.83;;;;;;;9.12;100.00;98583.56;5033768;28;20100;-83
2021/11/04 06:41:05;;;;;;;3.63;2.97;;;;;;;9.16;100.00;98590.19;5031278;28;20443;-84
2021/11/04 06:43:31;;;;;;;5.43;3.00;;;;;;;9.16;100.00;98595.38;5027914;28;20107;-83
2021/11/04 06:46:00;;;;;;;4.68;3.65;;;;;;;9.08;100.00;98608.09;5032663;28;20072;-83
2021/11/04 06:48:51;;;;;;;4.10;3.25;;;;;;;9.00;100.00;98610.38;5033197;28;20069;-82
2021/11/04 06:51:21;;;;;;;4.13;3.13;;;;;;;9.06;100.00;98625.59;5030187;28;20034;-86
2021/11/04 06:53:56;;;;;;;10.93;3.35;;;;;;;9.21;100.00;98637.50;5028596;28;20049;-81
2021/11/04 06:56:23;;;;;;;4.75;2.92;;;;;;;9.34;100.00;98646.09;5031219;28;20030;-82
2021/11/04 06:58:53;;;;;;;10.35;3.88;;;;;;;9.34;100.00;98646.09;5033806;28;20100;-82
2021/11/04 07:01:22;;;;;;;14.73;9.95;;;;;;;9.41;100.00;98646.50;5030883;28;20096;-81
2021/11/04 07:03:57;;;;;;;18.95;13.30;;;;;;;9.56;100.00;98647.19;5029995;28;20045;-80
2021/11/04 07:06:26;;;;;;;18.67;13.00;;;;;;;9.39;100.00;98645.78;5023281;28;20645;-81
2021/11/04 07:08:55;;;;;;;23.92;15.35;;;;;;;9.69;100.00;98645.34;5026213;28;20053;-81
2021/11/04 07:11:24;;;;;;;18.40;13.45;;;;;;;9.68;100.00;98648.91;5031330;28;20033;-80
2021/11/04 07:13:52;;;;;;;22.13;14.15;;;;;;;9.54;100.00;98657.72;5028400;28;20412;-81
2021/11/04 07:16:22;;;;;;;17.50;13.10;;;;;;;9.66;100.00;98659.44;5025774;28;20045;-82
2021/11/04 07:18:54;;;;;;;22.33;15.05;;;;;;;9.69;100.00;98660.97;5028855;28;20041;-83
2021/11/04 07:21:28;;;;;;;18.95;14.32;;;;;;;9.80;100.00;98660.19;5028564;28;20106;-83
2021/11/04 07:24:01;;;;;;;19.83;15.15;;;;;;;10.02;100.00;98673.34;5029318;28;20068;-81
2021/11/04 07:26:39;;;;;;;20.83;16.80;;;;;;;10.14;100.00;98676.81;5031959;28;20052;-84
2021/11/04 07:29:09;;;;;;;20.75;16.25;;;;;;;10.48;100.00;98683.84;5030927;28;20045;-83
2021/11/04 07:31:39;;;;;;;27.75;17.73;;;;;;;10.76;100.00;98679.19;5025308;28;20054;-82
2021/11/04 07:34:09;;;;;;;19.67;15.40;;;;;;;10.16;100.00;98687.94;5027094;28;20049;-81
2021/11/04 07:36:38;;;;;;;24.38;16.92;;;;;;;9.93;100.00;98695.66;5030357;28;20103;-85
2021/11/04 07:39:07;;;;;;;21.25;17.23;;;;;;;10.08;100.00;98698.94;5029968;28;20091;-85
2021/11/04 07:41:35;;;;;;;21.02;16.48;;;;;;;9.92;100.00;98708.78;5032767;28;20050;-85
2021/11/04 07:44:04;;;;;;;24.83;15.38;;;;;;;9.96;100.00;98702.44;5030667;28;20037;-86
2021/11/04 07:46:31;;;;;;;18.33;12.93;;;;;;;10.02;100.00;98715.00;5030937;28;20056;-85
2021/11/04 07:48:59;;;;;;;20.67;13.15;;;;;;;10.06;100.00;98721.63;5030131;28;20037;-84
2021/11/04 07:51:28;;;;;;;19.98;14.85;;;;;;;10.11;100.00;98729.13;5024511;28;20041;-88
2021/11/04 07:53:56;;;;;;;23.13;15.00;;;;;;;10.23;100.00;98738.66;5033440;28;20368;-85
2021/11/04 07:56:24;;;;;;;18.35;14.70;;;;;;;10.19;100.00;98737.22;5031135;28;20455;-84
2021/11/04 07:58:51;;;;;;;22.80;14.90;;;;;;;10.20;100.00;98755.31;5033686;28;20041;-81
2021/11/04 08:01:17;;;;;;;22.65;16.35;;;;;;;10.19;100.00;98760.66;5032049;28;20100;-79
2021/11/04 08:03:46;;;;;;;22.75;15.45;;;;;;;10.13;100.00;98763.69;5032009;28;20464;-80
2021/11/04 08:06:15;;;;;;;22.75;14.70;;;;;;;10.23;100.00;98772.53;5029779;28;20041;-80
2021/11/04 08:08:42;;;;;;;22.90;16.58;;;;;;;10.42;100.00;98769.44;5033335;28;20396;-80
2021/11/04 08:11:08;;;;;;;20.67;15.73;;;;;;;10.27;100.00;98784.38;5046293;28;20041;-85
2021/11/04 08:13:35;;;;;;;24.13;15.80;;;;;;;10.06;100.00;98793.69;5047804;28;20127;-83
2021/11/04 08:16:02;;;;;;;25.40;19.05;;;;;;;10.08;100.00;98784.03;5040675;28;20470;-81
2021/11/04 08:18:29;;;;;;;25.90;19.20;;;;;;;10.00;100.00;98783.72;5034336;28;20045;-80
2021/11/04 08:20:55;;;;;;;22.02;14.32;;;;;;;9.97;100.00;98790.81;5033242;28;20037;-80
2021/11/04 08:23:23;;;;;;;15.85;10.27;;;;;;;9.92;100.00;98792.91;5030280;28;20132;-79
2021/11/04 08:25:49;;;;;;;11.90;8.23;;;;;;;9.94;100.00;98796.22;5040370;28;20095;-80
2021/11/04 08:28:16;;;;;;;12.77;6.68;;;;;;;9.91;100.00;98788.66;5037249;28;20037;-76
2021/11/04 08:30:43;;;;;;;18.67;13.73;;;;;;;10.04;100.00;98790.38;5031601;28;20053;-77
2021/11/04 08:33:10;;;;;;;23.50;15.20;;;;;;;10.11;100.00;98791.59;5031878;28;20049;-78
2021/11/04 08:35:38;;;;;;;18.38;13.90;;;;;;;10.19;100.00;98802.31;5034065;28;20049;-78
2021/11/04 08:38:05;;;;;;;17.88;10.18;;;;;;;10.32;100.00;98805.72;5032104;28;20045;-80
2021/11/04 08:40:31;;;;;;;8.35;6.47;;;;;;;10.41;100.00;98814.66;5032233;28;20061;-83
2021/11/04 08:43:00;;;;;;;7.97;5.38;;;;;;;10.48;100.00;98821.91;5031932;28;20387;-78
2021/11/04 08:45:27;;;;;;;4.15;3.33;;;;;;;10.55;100.00;98826.72;5043832;28;20036;-82
2021/11/04 08:47:54;;;;;;;4.25;3.28;;;;;;;10.66;100.00;98831.97;5031981;28;20053;-81
2021/11/04 08:50:21;;;;;;;5.18;4.10;;;;;;;10.81;100.00;98822.19;5045790;28;20053;-82
2021/11/04 08:52:52;;;;;;;6.50;2.50;;;;;;;10.91;100.00;98823.16;5032051;28;20041;-80
2021/11/04 08:55:20;;;;;;;6.63;2.20;;;;;;;11.17;100.00;98832.50;5024062;28;20034;-81
2021/11/04 08:57:46;;;;;;;3.17;2.00;;;;;;;11.26;100.00;98841.41;5041272;28;20563;-81
2021/11/04 09:00:15;;;;;;;6.70;3.78;;;;;;;11.45;97.52;98851.28;5030548;28;20361;-82
2021/11/04 09:02:42;;;;;;;6.85;3.95;;;;;;;12.07;96.68;98858.72;5030620;28;20112;-78
2021/11/04 09:05:10;;;;;;;10.02;6.10;;;;;;;12.11;96.34;98862.75;5030508;28;20145;-79
2021/11/04 09:07:39;;;;;;;14.93;8.77;;;;;;;11.98;97.19;98865.47;5030339;28;20045;-81
2021/11/04 09:10:08;;;;;;;7.32;4.28;;;;;;;12.11;90.66;98862.75;5030516;28;20423;-80
2021/11/04 09:12:38;;;;;;;10.95;6.85;;;;;;;12.33;94.44;98872.34;5027847;28;20042;-81
2021/11/04 09:15:06;;;;;;;8.48;5.63;;;;;;;12.63;91.68;98870.88;5035230;28;20041;-86
2021/11/04 09:17:33;;;;;;;6.15;3.60;;;;;;;12.57;89.03;98875.63;5034010;28;20624;-80
2021/11/04 09:20:00;;;;;;;6.63;4.20;;;;;;;12.32;88.36;98863.66;5035052;28;20128;-84
2021/11/04 09:22:27;;;;;;;5.35;3.58;;;;;;;12.29;87.45;98863.06;5035333;28;20043;-83
2021/11/04 09:24:55;;;;;;;9.90;5.72;;;;;;;12.64;85.86;98867.28;5038590;28;20057;-83
2021/11/04 09:27:22;;;;;;;5.15;3.30;;;;;;;12.61;78.81;98880.59;5043163;28;20523;-84
2021/11/04 09:29:50;;;;;;;5.07;3.35;;;;;;;12.53;78.43;98897.72;5031566;28;20042;-82
2021/11/04 09:32:17;;;;;;;5.07;2.75;;;;;;;12.74;78.99;98891.75;5037911;28;20049;-82
2021/11/04 09:34:55;;;;;;;5.65;2.25;;;;;;;12.75;76.33;98885.56;5040025;28;20049;-85
2021/11/04 09:37:23;;;;;;;11.50;2.72;;;;;;;12.64;77.64;98890.81;5034976;28;20049;-87
2021/11/04 09:39:52;;;;;;;14.10;4.82;;;;;;;12.95;81.32;98887.41;5033170;28;20041;-86
2021/11/04 09:42:22;;;;;;;5.13;2.80;;;;;;;13.40;74.36;98884.59;5033839;28;20037;-83
2021/11/04 09:44:52;;;;;;;4.50;2.75;;;;;;;13.69;77.70;98899.66;5027463;28;20128;-83
2021/11/04 09:47:20;;;;;;;5.18;2.05;;;;;;;13.24;75.63;98905.97;5040669;28;20034;-83
2021/11/04 09:49:50;;;;;;;4.55;2.25;;;;;;;13.26;76.60;98901.47;5039790;28;20045;-83
2021/11/04 09:52:22;;;;;;;6.45;2.15;;;;;;;13.54;78.37;98918.31;5031038;28;20042;-83
2021/11/04 09:54:51;;;;;;;5.45;2.75;;;;;;;13.78;74.03;98931.13;5035126;28;20049;-85
2021/11/04 09:57:18;;;;;;;4.15;2.58;;;;;;;13.73;73.59;98938.53;5040609;28;20037;-84
2021/11/04 09:59:45;;;;;;;2.13;1.52;;;;;;;13.66;74.69;98947.06;5037387;28;20045;-83
2021/11/04 10:02:18;;;;;;;4.43;1.63;;;;;;;13.39;72.74;98948.38;5030941;28;20071;-82
2021/11/04 10:04:46;;;;;;;7.50;3.15;;;;;;;13.59;73.20;98963.28;5031674;28;20128;-83
2021/11/04 10:07:14;;;;;;;6.85;1.55;;;;;;;13.80;69.15;98975.56;5030225;28;20040;-85
2021/11/04 10:09:58;;;;;;;7.28;1.60;;;;;;;13.87;69.14;98971.44;5030311;28;20063;-83
2021/11/04 10:12:25;;;;;;;7.20;2.20;;;;;;;13.79;69.92;98981.72;5039258;28;20040;-86
2021/11/04 10:14:52;;;;;;;3.25;1.40;;;;;;;13.68;66.65;98974.75;5030412;28;20472;-84
2021/11/04 10:17:37;;;;;;;2.53;1.23;;;;;;;13.80;64.33;98980.78;5039731;28;20456;-87
2021/11/04 10:20:16;;;;;;;2.85;1.00;;;;;;;13.80;68.07;98986.03;5014071;28;20041;-83
2021/11/04 10:22:44;;;;;;;1.42;1.08;;;;;;;13.80;66.04;98984.25;5015619;28;20038;-83
2021/11/04 10:25:22;;;;;;;3.80;0.90;;;;;;;13.81;63.86;98992.91;5030095;28;20056;-84
2021/11/04 10:27:50;;;;;;;4.93;1.20;;;;;;;13.77;63.10;98997.56;5023694;28;20461;-83
2021/11/04 10:30:39;;;;;;;3.78;1.38;;;;;;;13.77;61.53;98991.50;5043317;28;20045;-82
2021/11/04 10:33:26;;;;;;;1.20;1.00;;;;;;;13.76;61.96;98984.63;5044570;28;20044;-81
2021/11/04 10:36:29;;;;;;;5.25;1.08;;;;;;;13.76;63.00;98979.38;5040129;28;20096;-84
2021/11/04 10:39:00;;;;;;;2.58;0.98;;;;;;;13.74;63.07;98991.75;4965338;28;20050;-82
2021/11/04 10:41:36;;;;;;;2.38;1.10;;;;;;;13.77;61.58;98986.28;5021510;28;20087;-85
2021/11/04 10:44:07;;;;;;;1.67;0.93;;;;;;;13.86;64.98;98980.28;5031248;28;20037;-83
2021/11/04 10:46:57;;;;;;;1.52;0.90;;;;;;;13.95;63.18;98983.88;5030541;28;20252;-84
2021/11/04 10:49:25;;;;;;;2.22;0.90;;;;;;;14.00;63.75;98979.91;5030096;28;20041;-82
2021/11/04 10:51:57;;;;;;;1.63;0.93;;;;;;;14.12;61.42;98976.28;5030145;28;20115;-80
2021/11/04 10:54:24;;;;;;;2.00;0.90;;;;;;;14.29;61.56;98976.66;5039747;28;20375;-83
2021/11/04 10:56:53;;;;;;;1.48;1.10;;;;;;;14.32;63.35;98971.13;5035888;28;20041;-82
2021/11/04 10:59:21;;;;;;;2.13;1.10;;;;;;;14.41;63.14;98980.81;5044505;28;20103;-80
2021/11/04 11:01:53;;;;;;;3.30;0.75;;;;;;;14.49;64.00;98983.66;5030456;28;20045;-80
2021/11/04 11:04:21;;;;;;;1.00;0.85;;;;;;;14.49;61.62;98978.44;5027863;28;20121;-81
2021/11/04 11:06:55;;;;;;;2.05;0.90;;;;;;;14.53;59.04;98976.34;5029355;28;20854;-81
2021/11/04 11:09:27;;;;;;;0.63;0.63;;;;;;;14.58;60.65;98974.97;5029261;28;20049;-82
2021/11/04 11:11:59;;;;;;;0.98;0.90;;;;;;;14.60;59.96;98975.69;5028869;28;20072;-80
2021/11/04 11:14:29;;;;;;;1.00;0.77;;;;;;;14.57;60.84;98981.19;5033981;28;20484;-81
2021/11/04 11:16:58;;;;;;;1.48;0.90;;;;;;;14.54;60.76;98991.97;5022444;28;20057;-84
2021/11/04 11:19:27;;;;;;;2.88;0.95;;;;;;;14.53;61.48;98992.06;5036999;28;20044;-82
2021/11/04 11:21:55;;;;;;;2.33;1.10;;;;;;;14.13;66.53;98984.97;5023984;28;20083;-81
2021/11/04 11:24:34;;;;;;;5.40;1.30;;;;;;;14.32;66.15;98997.34;5033451;28;20455;-81
2021/11/04 11:27:06;;;;;;;4.93;1.17;;;;;;;14.06;65.25;98995.16;5034276;28;20063;-84
2021/11/04 11:29:38;;;;;;;2.00;1.20;;;;;;;14.25;67.56;98993.59;5034315;28;20052;-80
2021/11/04 11:32:24;;;;;;;1.95;1.50;;;;;;;14.28;68.28;98994.16;5026737;28;20053;-84